Time;durP1;ratioP1;P1;durP2;ratioP2;P2;SDS_P1;SDS_P2;PMS_P1;PMS_P2;Temp;Humidity;BMP_temperature;BMP_pressure;BME280_temperature;BME280_humidity;BME280_pressure;Samples;Min_cycle;Max_cycle;Signal;HPM_P1;HPM_P2
2023/09/24 00:00:01;;;;;;;4.80;3.37;;;17.00;99.90;;;;;;5117876;28;20476;-93
2023/09/24 00:02:29;;;;;;;3.90;3.43;;;17.00;99.90;;;;;;5101050;28;20505;-92
2023/09/24 00:05:04;;;;;;;3.97;3.10;;;17.00;99.90;;;;;;5116686;28;20445;-92
2023/09/24 00:07:32;;;;;;;2.90;2.60;;;17.00;99.90;;;;;;5116418;28;20437;-92
2023/09/24 00:10:00;;;;;;;3.00;2.80;;;17.00;99.90;;;;;;5115695;28;20465;-91
2023/09/24 00:12:28;;;;;;;3.47;3.23;;;17.00;99.90;;;;;;5087382;28;20469;-92
2023/09/24 00:14:57;;;;;;;3.37;3.07;;;17.00;99.90;;;;;;5088392;28;20457;-93
2023/09/24 00:17:27;;;;;;;4.30;3.27;;;17.00;99.90;;;;;;5104434;28;20485;-91
2023/09/24 00:19:55;;;;;;;4.30;3.37;;;16.90;99.90;;;;;;5093654;28;20477;-85
2023/09/24 00:22:22;;;;;;;3.93;3.03;;;16.90;99.90;;;;;;5094785;28;20465;-91
2023/09/24 00:24:49;;;;;;;4.10;3.33;;;16.90;99.90;;;;;;5098340;28;20472;-92
2023/09/24 00:27:19;;;;;;;3.27;2.97;;;16.90;99.90;;;;;;5080463;28;20471;-92
2023/09/24 00:29:48;;;;;;;3.73;3.50;;;16.90;99.90;;;;;;5100551;28;20488;-92
2023/09/24 00:32:18;;;;;;;3.00;2.70;;;16.90;99.90;;;;;;5096305;28;20480;-92
2023/09/24 00:34:46;;;;;;;3.93;3.03;;;16.90;99.90;;;;;;5099993;28;20492;-84
2023/09/24 00:37:13;;;;;;;4.60;3.50;;;16.90;99.90;;;;;;5084321;28;20469;-86
2023/09/24 00:39:41;;;;;;;3.10;2.87;;;16.80;99.90;;;;;;5092316;28;20532;-92
2023/09/24 00:42:12;;;;;;;3.53;2.97;;;16.80;99.90;;;;;;5110073;28;20469;-91
2023/09/24 00:44:40;;;;;;;3.70;3.50;;;16.80;99.90;;;;;;5100215;28;20461;-85
2023/09/24 00:47:08;;;;;;;4.07;3.00;;;16.80;99.90;;;;;;5077995;28;20505;-92
2023/09/24 00:49:36;;;;;;;4.27;3.47;;;16.80;99.90;;;;;;5085082;28;20858;-92
2023/09/24 00:52:09;;;;;;;8.50;4.33;;;16.80;99.90;;;;;;5095135;28;20473;-85
2023/09/24 00:54:40;;;;;;;4.07;3.37;;;16.80;99.90;;;;;;5093058;28;20815;-92
2023/09/24 00:57:09;;;;;;;5.23;3.97;;;16.80;99.90;;;;;;5093529;28;20465;-91
2023/09/24 00:59:38;;;;;;;3.97;3.60;;;16.70;99.90;;;;;;5093424;28;20814;-85
2023/09/24 01:02:09;;;;;;;3.87;3.13;;;16.70;99.90;;;;;;5093438;28;20480;-85
2023/09/24 01:04:36;;;;;;;3.70;3.40;;;16.70;99.90;;;;;;5093889;28;20558;-92
2023/09/24 01:07:05;;;;;;;3.63;3.33;;;16.70;99.90;;;;;;5094705;28;20457;-92
2023/09/24 01:09:36;;;;;;;3.97;3.50;;;16.60;99.90;;;;;;5094435;28;20476;-91
2023/09/24 01:12:05;;;;;;;4.17;3.77;;;16.60;99.90;;;;;;5095822;28;20484;-92
2023/09/24 01:14:34;;;;;;;3.40;3.20;;;16.60;99.90;;;;;;5084503;28;20554;-85
2023/09/24 01:17:07;;;;;;;3.00;2.80;;;16.60;99.90;;;;;;5093558;28;20533;-92
2023/09/24 01:19:37;;;;;;;3.60;3.40;;;16.60;99.90;;;;;;5092921;28;20504;-85
2023/09/24 01:22:07;;;;;;;4.50;3.43;;;16.60;99.90;;;;;;5092841;28;20540;-85
2023/09/24 01:24:34;;;;;;;3.90;3.60;;;16.60;99.90;;;;;;5093010;28;20465;-91
2023/09/24 01:27:01;;;;;;;3.70;3.30;;;16.60;99.90;;;;;;5068858;28;20462;-84
2023/09/24 01:29:28;;;;;;;3.53;3.20;;;16.50;99.90;;;;;;5089487;28;20468;-85
2023/09/24 01:31:55;;;;;;;3.57;3.27;;;16.50;99.90;;;;;;5092973;28;20453;-83
2023/09/24 01:34:23;;;;;;;3.77;3.47;;;16.50;99.90;;;;;;5067884;28;20470;-91
2023/09/24 01:37:35;;;;;;;3.90;3.60;;;16.50;99.90;;;;;;5071077;28;20466;-84
2023/09/24 01:40:14;;;;;;;4.93;4.13;;;16.50;99.90;;;;;;5059104;28;20467;-85
2023/09/24 01:42:42;;;;;;;4.07;3.67;;;16.40;99.90;;;;;;5094023;28;20449;-90
2023/09/24 01:45:10;;;;;;;4.23;3.80;;;16.40;99.90;;;;;;5097327;28;20477;-84
2023/09/24 01:47:37;;;;;;;4.27;3.90;;;16.40;99.90;;;;;;5096513;28;20477;-85
2023/09/24 01:50:08;;;;;;;3.60;3.30;;;16.40;99.90;;;;;;5096953;28;20461;-92
2023/09/24 01:52:36;;;;;;;4.23;3.53;;;16.40;99.90;;;;;;5097423;28;20516;-92
2023/09/24 01:55:05;;;;;;;4.00;3.60;;;16.40;99.90;;;;;;5098433;28;20541;-92
2023/09/24 01:57:34;;;;;;;5.20;3.17;;;16.40;99.90;;;;;;5096850;28;20475;-92
2023/09/24 02:00:21;;;;;;;3.30;3.10;;;16.40;99.90;;;;;;5097234;28;20465;-93
2023/09/24 02:02:56;;;;;;;4.50;3.50;;;16.40;99.90;;;;;;5076677;28;20461;-91
2023/09/24 02:05:24;;;;;;;4.17;3.80;;;16.40;99.90;;;;;;5088837;28;20453;-82
2023/09/24 02:07:54;;;;;;;4.60;3.40;;;16.40;99.90;;;;;;5096692;28;20549;-85
2023/09/24 02:10:26;;;;;;;5.90;4.40;;;16.40;99.90;;;;;;5095836;28;20497;-92
2023/09/24 02:12:55;;;;;;;3.70;3.10;;;16.40;99.90;;;;;;5097200;28;20469;-85
2023/09/24 02:15:23;;;;;;;3.60;3.30;;;16.40;99.90;;;;;;5096089;28;20479;-85
2023/09/24 02:17:50;;;;;;;4.30;4.00;;;16.40;99.90;;;;;;5096766;28;20457;-92
2023/09/24 02:20:25;;;;;;;4.70;4.20;;;16.30;99.90;;;;;;5096054;28;20849;-92
2023/09/24 02:22:56;;;;;;;4.50;4.10;;;16.30;99.90;;;;;;5097786;28;20468;-84
2023/09/24 02:25:30;;;;;;;4.60;4.20;;;16.30;99.90;;;;;;5067634;28;20552;-91
2023/09/24 02:27:58;;;;;;;5.90;3.60;;;16.30;99.90;;;;;;5082124;28;20481;-84
2023/09/24 02:30:27;;;;;;;4.90;4.60;;;16.30;99.90;;;;;;5085986;28;20556;-91
2023/09/24 02:32:54;;;;;;;4.33;3.97;;;16.30;99.90;;;;;;5097347;28;20461;-90
2023/09/24 02:35:22;;;;;;;5.57;4.97;;;16.30;99.90;;;;;;5097188;28;20473;-92
2023/09/24 02:37:53;;;;;;;4.13;3.73;;;16.30;99.90;;;;;;5095676;28;20896;-91
2023/09/24 02:40:22;;;;;;;3.30;3.00;;;16.30;99.90;;;;;;5096816;28;20465;-91
2023/09/24 02:42:54;;;;;;;3.60;3.40;;;16.30;99.90;;;;;;5097332;28;20466;-90
2023/09/24 02:45:25;;;;;;;4.50;3.20;;;16.30;99.90;;;;;;5099147;28;20502;-89
2023/09/24 02:47:52;;;;;;;3.47;3.20;;;16.30;99.90;;;;;;5096934;28;20469;-84
2023/09/24 02:50:22;;;;;;;4.90;3.60;;;16.30;99.90;;;;;;5087862;28;20784;-84
2023/09/24 02:52:50;;;;;;;4.30;3.90;;;16.30;99.90;;;;;;5066128;28;20500;-91
2023/09/24 02:55:19;;;;;;;4.33;3.93;;;16.30;99.90;;;;;;5088932;28;20473;-84
2023/09/24 02:57:48;;;;;;;4.20;3.67;;;16.30;99.90;;;;;;5096184;28;20478;-90
2023/09/24 03:00:19;;;;;;;6.20;4.23;;;16.40;99.90;;;;;;5096807;28;20536;-91
2023/09/24 03:02:47;;;;;;;3.43;3.23;;;16.40;99.90;;;;;;5095725;28;20499;-85
2023/09/24 03:05:20;;;;;;;4.10;3.80;;;16.40;99.90;;;;;;5094629;28;20799;-90
2023/09/24 03:07:47;;;;;;;3.90;3.60;;;16.40;99.90;;;;;;5097130;28;20470;-90
2023/09/24 03:10:18;;;;;;;4.03;3.40;;;16.40;99.90;;;;;;5098972;28;20513;-90
2023/09/24 03:12:50;;;;;;;4.17;3.87;;;16.40;99.90;;;;;;5109376;28;20465;-90
2023/09/24 03:15:21;;;;;;;4.37;3.00;;;16.40;99.90;;;;;;5097629;28;20453;-85
2023/09/24 03:17:48;;;;;;;3.70;3.40;;;16.40;99.90;;;;;;5106630;28;20807;-91
2023/09/24 03:20:16;;;;;;;3.53;3.23;;;16.40;99.90;;;;;;5092765;28;20869;-85
2023/09/24 03:22:48;;;;;;;5.50;4.03;;;16.50;99.90;;;;;;5102776;28;20457;-85
2023/09/24 03:25:17;;;;;;;5.10;3.80;;;16.50;99.90;;;;;;5100948;28;20474;-92
2023/09/24 03:27:44;;;;;;;4.80;3.60;;;16.50;99.90;;;;;;5101001;28;20457;-91
2023/09/24 03:30:14;;;;;;;5.43;4.93;;;16.50;99.90;;;;;;5097233;28;20801;-90
2023/09/24 03:32:45;;;;;;;5.03;4.70;;;16.60;99.90;;;;;;5095890;28;20491;-84
2023/09/24 03:35:13;;;;;;;5.17;4.70;;;16.50;99.90;;;;;;5101837;28;20466;-90
2023/09/24 03:37:43;;;;;;;5.03;4.63;;;16.50;99.90;;;;;;5105257;28;20491;-91
2023/09/24 03:40:12;;;;;;;4.73;4.33;;;16.50;99.90;;;;;;5097658;28;20500;-85
2023/09/24 03:42:45;;;;;;;4.90;4.50;;;16.50;99.90;;;;;;5099824;28;20488;-89
2023/09/24 03:45:16;;;;;;;5.43;4.90;;;16.50;99.90;;;;;;5087047;28;20486;-91
2023/09/24 03:47:47;;;;;;;5.40;4.93;;;16.50;99.90;;;;;;5083611;28;20473;-91
2023/09/24 03:50:18;;;;;;;5.97;4.37;;;16.50;99.90;;;;;;5098757;28;20967;-85
2023/09/24 03:52:48;;;;;;;5.07;4.57;;;16.50;99.90;;;;;;5076446;28;20471;-84
2023/09/24 03:55:16;;;;;;;4.50;4.10;;;16.50;99.90;;;;;;5079117;28;20510;-91
2023/09/24 03:57:52;;;;;;;5.37;4.20;;;16.60;99.90;;;;;;5088324;28;20461;-90
2023/09/24 04:00:20;;;;;;;4.70;4.30;;;16.50;99.90;;;;;;5074711;28;20513;-90
2023/09/24 04:06:14;;;;;;;4.47;4.07;;;16.50;99.90;;;;;;5102545;28;20462;-90
2023/09/24 04:08:41;;;;;;;5.07;4.57;;;16.50;99.90;;;;;;5104427;28;20461;-90
2023/09/24 04:11:16;;;;;;;4.60;4.30;;;16.50;99.90;;;;;;5101917;28;20465;-85
2023/09/24 04:13:43;;;;;;;6.53;4.30;;;16.50;99.90;;;;;;5098190;28;20453;-84
2023/09/24 04:16:12;;;;;;;4.20;3.90;;;16.50;99.90;;;;;;5099191;28;20483;-84
2023/09/24 04:18:44;;;;;;;5.50;5.00;;;16.50;99.90;;;;;;5098708;28;20493;-85
2023/09/24 04:21:20;;;;;;;4.90;4.40;;;16.40;99.90;;;;;;5081791;28;20508;-84
2023/09/24 04:23:47;;;;;;;4.67;4.30;;;16.40;99.90;;;;;;5080855;28;20909;-85
2023/09/24 04:26:45;;;;;;;4.40;4.10;;;16.40;99.90;;;;;;5103517;28;20939;-84
2023/09/24 04:29:16;;;;;;;5.27;4.87;;;16.40;99.90;;;;;;5079780;28;20516;-90
2023/09/24 04:32:15;;;;;;;4.87;4.47;;;16.40;99.90;;;;;;5089439;28;20515;-90
2023/09/24 04:37:53;;;;;;;5.40;4.87;;;16.40;99.90;;;;;;4981004;28;20457;-89
2023/09/24 04:40:26;;;;;;;6.23;5.73;;;16.40;99.90;;;;;;5062767;28;20553;-84
2023/09/24 04:42:53;;;;;;;6.00;5.40;;;16.40;99.90;;;;;;5099460;28;20513;-90
2023/09/24 04:45:22;;;;;;;6.30;5.70;;;16.30;99.90;;;;;;5096110;28;20530;-84
2023/09/24 04:47:49;;;;;;;6.57;6.00;;;16.40;99.90;;;;;;5094362;28;20453;-84
2023/09/24 04:50:18;;;;;;;6.80;6.20;;;16.40;99.90;;;;;;5100301;28;20466;-91
2023/09/24 04:52:54;;;;;;;6.93;6.20;;;16.30;99.90;;;;;;5104860;28;20990;-85
2023/09/24 04:55:22;;;;;;;6.77;6.27;;;16.30;99.90;;;;;;5081467;28;20477;-90
2023/09/24 04:57:50;;;;;;;7.43;6.83;;;16.30;99.90;;;;;;5100612;28;20525;-90
2023/09/24 05:00:24;;;;;;;8.20;6.67;;;16.30;99.90;;;;;;5082082;28;20462;-91
2023/09/24 05:02:54;;;;;;;7.27;6.70;;;16.30;99.90;;;;;;5099254;28;20465;-91
2023/09/24 05:05:24;;;;;;;9.77;7.43;;;16.30;99.90;;;;;;5094879;28;20457;-91
2023/09/24 05:07:55;;;;;;;7.07;6.47;;;16.30;99.90;;;;;;5107354;28;20469;-92
2023/09/24 05:10:29;;;;;;;8.03;7.37;;;16.30;99.90;;;;;;5096373;28;20461;-85
2023/09/24 05:13:02;;;;;;;8.23;7.20;;;16.30;99.90;;;;;;5102843;28;20526;-91
2023/09/24 05:15:30;;;;;;;8.67;7.87;;;16.30;99.90;;;;;;5105947;28;20453;-91
2023/09/24 05:17:57;;;;;;;9.27;8.47;;;16.30;99.90;;;;;;5104133;28;20465;-90
2023/09/24 05:20:24;;;;;;;10.30;9.40;;;16.20;99.90;;;;;;5094031;28;20482;-91
2023/09/24 05:22:57;;;;;;;8.80;8.00;;;16.20;99.90;;;;;;5095790;28;20530;-90
2023/09/24 05:25:27;;;;;;;10.10;9.27;;;16.20;99.90;;;;;;5094061;28;20872;-84
2023/09/24 05:27:57;;;;;;;7.60;6.90;;;16.20;99.90;;;;;;5095298;28;20508;-90
2023/09/24 05:30:24;;;;;;;9.07;8.27;;;16.20;99.90;;;;;;5096227;28;20826;-91
2023/09/24 05:32:51;;;;;;;9.03;8.10;;;16.20;99.90;;;;;;5095093;28;20947;-90
2023/09/24 05:35:20;;;;;;;9.47;8.67;;;16.20;99.90;;;;;;5093427;28;20469;-84
2023/09/24 05:37:49;;;;;;;8.97;8.07;;;16.20;99.90;;;;;;5093656;28;20462;-84
2023/09/24 05:40:20;;;;;;;9.87;8.43;;;16.20;99.90;;;;;;5066474;28;20561;-85
2023/09/24 05:42:49;;;;;;;7.57;6.97;;;16.20;99.90;;;;;;5083145;28;20484;-85
2023/09/24 05:45:21;;;;;;;8.57;7.20;;;16.20;99.90;;;;;;5076134;28;20478;-84
2023/09/24 05:47:57;;;;;;;8.57;7.97;;;16.20;99.90;;;;;;5084761;28;20484;-91
2023/09/24 05:50:30;;;;;;;7.53;6.93;;;16.20;99.90;;;;;;5093081;28;20465;-85
2023/09/24 05:52:59;;;;;;;9.07;8.30;;;16.20;99.90;;;;;;5096332;28;20544;-90
2023/09/24 05:55:57;;;;;;;8.57;7.73;;;16.20;99.90;;;;;;5091963;28;20487;-84
2023/09/24 05:58:25;;;;;;;7.70;7.10;;;16.20;99.90;;;;;;5094507;28;20473;-85
2023/09/24 06:01:08;;;;;;;8.10;7.40;;;16.30;99.90;;;;;;5093257;28;20529;-84
2023/09/24 06:03:35;;;;;;;5.97;5.47;;;16.30;99.90;;;;;;5092161;28;21016;-91
2023/09/24 06:06:02;;;;;;;7.20;6.63;;;16.30;99.90;;;;;;5093943;28;20469;-85
2023/09/24 06:08:32;;;;;;;6.73;6.23;;;16.30;99.90;;;;;;5077035;28;20819;-86
2023/09/24 06:11:03;;;;;;;7.87;7.07;;;16.40;99.90;;;;;;5090072;28;20453;-91
2023/09/24 06:13:30;;;;;;;7.63;6.83;;;16.40;99.90;;;;;;5095409;28;20476;-85
2023/09/24 06:16:00;;;;;;;7.37;6.60;;;16.40;99.90;;;;;;5093609;28;20818;-91
2023/09/24 06:18:29;;;;;;;7.40;6.80;;;16.40;99.90;;;;;;5094504;28;20469;-85
2023/09/24 06:20:59;;;;;;;9.50;6.70;;;16.40;99.90;;;;;;5092376;28;20465;-85
2023/09/24 06:23:31;;;;;;;6.40;5.80;;;16.40;99.90;;;;;;5092984;28;21016;-85
2023/09/24 06:26:03;;;;;;;6.63;6.03;;;16.40;99.90;;;;;;5082666;28;20473;-85
2023/09/24 06:28:33;;;;;;;7.87;6.60;;;16.40;99.90;;;;;;5080906;28;21224;-86
2023/09/24 06:31:01;;;;;;;7.07;6.07;;;16.40;99.90;;;;;;5083504;28;20473;-89
2023/09/24 06:33:42;;;;;;;7.10;6.10;;;16.40;99.90;;;;;;5099305;28;20469;-84
2023/09/24 06:36:12;;;;;;;6.27;5.67;;;16.40;99.90;;;;;;5106568;28;20559;-91
2023/09/24 06:38:44;;;;;;;6.60;5.87;;;16.40;99.90;;;;;;5096041;28;20477;-84
2023/09/24 06:41:23;;;;;;;5.20;4.80;;;16.50;99.90;;;;;;5096148;28;20461;-90
2023/09/24 06:43:52;;;;;;;5.57;5.17;;;16.50;99.90;;;;;;5096796;28;20457;-91
2023/09/24 06:46:19;;;;;;;5.70;5.30;;;16.50;99.90;;;;;;5072345;28;20889;-92
2023/09/24 06:48:57;;;;;;;8.53;5.73;;;16.50;99.90;;;;;;5095428;28;20477;-91
2023/09/24 06:51:26;;;;;;;5.77;5.37;;;16.50;99.90;;;;;;5096361;28;20809;-85
2023/09/24 06:53:54;;;;;;;7.20;5.80;;;16.50;99.90;;;;;;5094390;28;20525;-85
2023/09/24 06:56:23;;;;;;;5.00;4.60;;;16.60;99.90;;;;;;5076918;28;20473;-91
2023/09/24 06:59:17;;;;;;;8.70;6.20;;;16.60;99.90;;;;;;5075261;28;20477;-85
2023/09/24 07:01:44;;;;;;;6.27;5.67;;;16.60;99.90;;;;;;5076810;28;20920;-85
2023/09/24 07:04:13;;;;;;;4.87;4.53;;;16.60;99.90;;;;;;5066275;28;20466;-85
2023/09/24 07:06:44;;;;;;;5.93;5.23;;;16.60;99.90;;;;;;5093914;28;20470;-91
2023/09/24 07:09:19;;;;;;;5.90;5.40;;;16.60;99.90;;;;;;5093861;28;20527;-92
2023/09/24 07:11:51;;;;;;;5.70;5.10;;;16.60;99.90;;;;;;5085212;28;20522;-90
2023/09/24 07:14:31;;;;;;;5.80;5.30;;;16.60;99.90;;;;;;5084873;28;20605;-91
2023/09/24 07:17:09;;;;;;;5.40;4.90;;;16.70;99.90;;;;;;5085019;28;20560;-85
2023/09/24 07:19:45;;;;;;;10.30;7.50;;;16.70;99.90;;;;;;5095933;28;20555;-92
2023/09/24 07:22:30;;;;;;;6.50;5.90;;;16.70;99.90;;;;;;5094647;28;20473;-91
2023/09/24 07:25:00;;;;;;;7.53;5.60;;;16.70;99.90;;;;;;5097119;28;20542;-91
2023/09/24 07:27:31;;;;;;;5.83;5.10;;;16.70;99.90;;;;;;5090822;28;20470;-91
2023/09/24 07:30:08;;;;;;;5.70;4.77;;;16.80;99.90;;;;;;5088454;28;20473;-92
2023/09/24 07:32:40;;;;;;;4.33;3.90;;;16.80;99.90;;;;;;5074522;28;20466;-92
2023/09/24 07:35:10;;;;;;;5.03;4.20;;;16.90;99.90;;;;;;5091741;28;20473;-86
2023/09/24 07:37:53;;;;;;;5.13;4.73;;;16.90;99.90;;;;;;5095124;28;20530;-93
2023/09/24 07:40:40;;;;;;;4.67;4.27;;;16.90;99.90;;;;;;5094042;28;20551;-91
2023/09/24 07:43:11;;;;;;;5.10;4.60;;;17.00;99.90;;;;;;5085734;28;20473;-85
2023/09/24 07:45:48;;;;;;;6.17;5.73;;;17.00;99.90;;;;;;5080545;28;20494;-91
2023/09/24 07:48:20;;;;;;;5.50;5.00;;;17.00;99.90;;;;;;5071020;28;20470;-90
2023/09/24 07:51:17;;;;;;;5.10;4.73;;;17.10;99.90;;;;;;5090212;28;20468;-91
2023/09/24 07:53:48;;;;;;;6.63;5.93;;;17.10;99.90;;;;;;5061011;28;20973;-85
2023/09/24 07:56:23;;;;;;;7.23;6.67;;;17.10;99.90;;;;;;5076538;28;20490;-90
2023/09/24 07:58:52;;;;;;;6.93;6.23;;;17.20;99.90;;;;;;5078421;28;20549;-91
2023/09/24 08:01:24;;;;;;;10.63;7.30;;;17.20;99.90;;;;;;5094083;28;20476;-90
2023/09/24 08:03:54;;;;;;;6.83;6.23;;;17.20;99.90;;;;;;5063624;28;20830;-91
2023/09/24 08:06:28;;;;;;;6.73;6.13;;;17.30;99.90;;;;;;5074767;28;20516;-90
2023/09/24 08:09:04;;;;;;;8.73;6.37;;;17.30;99.90;;;;;;5085346;28;20782;-91
2023/09/24 08:11:34;;;;;;;7.57;6.97;;;17.30;99.90;;;;;;5061337;28;20494;-84
2023/09/24 08:14:14;;;;;;;5.17;4.67;;;17.40;99.90;;;;;;5099656;28;20982;-85
2023/09/24 08:16:43;;;;;;;4.30;3.90;;;17.40;99.90;;;;;;5069464;28;20470;-91
2023/09/24 08:19:33;;;;;;;3.47;3.17;;;17.50;99.90;;;;;;5098954;28;20472;-85
2023/09/24 08:22:42;;;;;;;3.43;3.23;;;17.50;99.90;;;;;;5095691;28;20557;-86
2023/09/24 08:25:12;;;;;;;3.57;3.27;;;17.60;99.90;;;;;;5088920;28;20472;-91
2023/09/24 08:27:45;;;;;;;4.23;3.93;;;17.60;99.90;;;;;;5098966;28;20469;-91
2023/09/24 08:30:31;;;;;;;8.07;6.27;;;17.60;99.90;;;;;;5042524;28;20964;-92
2023/09/24 08:33:10;;;;;;;5.87;4.17;;;17.60;99.90;;;;;;5080566;28;20565;-85
2023/09/24 08:35:40;;;;;;;4.57;4.17;;;17.70;99.90;;;;;;5089974;28;20982;-85
2023/09/24 08:38:14;;;;;;;6.20;4.00;;;17.70;99.90;;;;;;5075523;28;21030;-86
2023/09/24 08:40:45;;;;;;;5.37;4.97;;;17.70;99.90;;;;;;5075859;28;20992;-86
2023/09/24 08:43:25;;;;;;;5.10;4.70;;;17.80;99.90;;;;;;5092037;28;20461;-86
2023/09/24 08:46:07;;;;;;;5.53;5.00;;;17.80;99.90;;;;;;5083155;28;21242;-92
2023/09/24 08:48:43;;;;;;;4.13;3.83;;;17.90;99.90;;;;;;5087377;28;20496;-91
2023/09/24 08:51:26;;;;;;;3.90;3.60;;;17.90;99.90;;;;;;5099781;28;20445;-84
2023/09/24 08:57:06;;;;;;;4.87;4.47;;;18.00;99.90;;;;;;5031632;28;20469;-85
2023/09/24 09:02:44;;;;;;;3.97;3.57;;;18.00;99.90;;;;;;5070291;28;20482;-84
2023/09/24 09:05:51;;;;;;;3.77;3.40;;;18.00;99.90;;;;;;5050826;28;20524;-93
2023/09/24 09:08:32;;;;;;;3.73;3.43;;;18.00;99.90;;;;;;5088292;28;20473;-84
2023/09/24 09:11:19;;;;;;;4.23;3.43;;;18.00;99.90;;;;;;5061848;28;20955;-90
2023/09/24 09:13:57;;;;;;;5.50;3.60;;;18.00;99.90;;;;;;5060011;28;20471;-91
2023/09/24 09:16:33;;;;;;;5.07;3.83;;;18.00;99.90;;;;;;5073782;28;20462;-86
2023/09/24 09:19:24;;;;;;;3.80;3.50;;;18.00;99.90;;;;;;5098277;28;20977;-85
2023/09/24 09:22:16;;;;;;;2.80;2.60;;;18.10;99.90;;;;;;5071850;28;20526;-90
2023/09/24 09:24:44;;;;;;;2.77;2.57;;;18.10;99.90;;;;;;5067659;28;20496;-86
2023/09/24 09:27:23;;;;;;;5.03;3.77;;;18.10;99.90;;;;;;5094181;28;20476;-89
2023/09/24 09:30:17;;;;;;;3.37;3.00;;;18.20;99.90;;;;;;5099176;28;20560;-86
2023/09/24 09:32:47;;;;;;;5.50;4.97;;;18.20;99.90;;;;;;5094996;28;20557;-85
2023/09/24 09:35:17;;;;;;;5.90;5.30;;;18.20;99.90;;;;;;5072269;28;20781;-85
2023/09/24 09:37:47;;;;;;;4.50;4.03;;;18.20;99.90;;;;;;5078490;28;20454;-85
2023/09/24 09:40:18;;;;;;;6.80;6.20;;;18.20;99.90;;;;;;5111727;28;20479;-91
2023/09/24 09:43:04;;;;;;;5.00;4.50;;;18.20;99.90;;;;;;5114138;28;20456;-92
2023/09/24 09:45:34;;;;;;;9.73;4.00;;;18.30;99.90;;;;;;5106110;28;20536;-91
2023/09/24 09:48:07;;;;;;;7.07;5.20;;;18.30;99.90;;;;;;5108106;28;20835;-92
2023/09/24 09:50:48;;;;;;;5.10;4.60;;;18.40;99.90;;;;;;5079393;28;20462;-84
2023/09/24 09:53:34;;;;;;;4.27;3.50;;;18.40;99.90;;;;;;5099722;28;20953;-92
2023/09/24 09:56:18;;;;;;;3.83;3.20;;;18.40;99.90;;;;;;5093270;28;20473;-87
2023/09/24 09:59:08;;;;;;;3.20;2.90;;;18.50;99.90;;;;;;5077320;28;20457;-91
2023/09/24 10:16:51;;;;;;;3.23;2.93;;;18.80;99.90;;;;;;5083549;28;20476;-92
2023/09/24 10:19:22;;;;;;;5.37;3.33;;;18.80;99.90;;;;;;5103120;28;20449;-92
2023/09/24 10:21:54;;;;;;;3.73;2.27;;;18.80;99.90;;;;;;5111036;28;20491;-92
2023/09/24 10:24:39;;;;;;;3.10;2.40;;;18.90;99.90;;;;;;5078452;28;20462;-90
2023/09/24 10:27:12;;;;;;;5.43;2.27;;;18.90;99.90;;;;;;5097598;28;20445;-84
2023/09/24 10:30:03;;;;;;;3.93;2.40;;;19.00;99.90;;;;;;5098780;28;20792;-91
2023/09/24 10:32:50;;;;;;;3.00;2.70;;;19.00;99.90;;;;;;5098494;28;20544;-85
2023/09/24 10:35:25;;;;;;;2.33;2.03;;;19.00;99.90;;;;;;5070501;28;20465;-84
2023/09/24 10:38:01;;;;;;;5.33;2.70;;;19.00;99.90;;;;;;5066656;28;20470;-90
2023/09/24 10:44:27;;;;;;;2.60;2.40;;;19.10;99.90;;;;;;5006315;28;20463;-85
2023/09/24 10:46:57;;;;;;;4.90;2.43;;;19.20;99.90;;;;;;4961757;28;20552;-90
2023/09/24 10:59:20;;;;;;;3.60;2.00;;;19.50;99.90;;;;;;4902475;28;20472;-86
2023/09/24 11:01:57;;;;;;;2.30;2.03;;;19.50;99.90;;;;;;5042681;28;20497;-85
2023/09/24 11:04:57;;;;;;;;;;;;;;;;;;;;;
2023/09/24 11:07:35;;;;;;;3.13;2.27;;;19.70;99.90;;;;;;5051520;28;20463;-91
2023/09/24 11:10:04;;;;;;;2.33;1.80;;;19.70;99.90;;;;;;5062921;28;20493;-91
2023/09/24 11:12:37;;;;;;;3.70;2.53;;;19.70;99.90;;;;;;5068292;28;20874;-84
2023/09/24 11:15:46;;;;;;;;;;;;;;;;;;;;;
2023/09/24 11:18:19;;;;;;;4.30;3.90;;;19.70;99.90;;;;;;5090865;28;20465;-87
2023/09/24 11:20:55;;;;;;;6.60;4.47;;;19.70;99.90;;;;;;5067345;28;20840;-85
2023/09/24 11:23:58;;;;;;;4.80;4.30;;;19.70;99.90;;;;;;5089763;28;20523;-92
2023/09/24 11:27:14;;;;;;;;;;;;;;;;;;;;;
2023/09/24 11:36:27;;;;;;;2.40;1.70;;;19.70;99.90;;;;;;5078845;28;20482;-84
2023/09/24 11:39:14;;;;;;;;;;;;;;;;;;;;;
2023/09/24 11:41:51;;;;;;;3.10;2.30;;;19.70;99.90;;;;;;5092626;28;20461;-91
2023/09/24 11:44:58;;;;;;;2.20;2.00;;;19.90;99.90;;;;;;5105659;28;20461;-92
2023/09/24 11:47:28;;;;;;;2.00;1.50;;;19.90;99.90;;;;;;5090831;28;20819;-85
2023/09/24 11:53:25;;;;;;;2.77;1.83;;;20.00;99.90;;;;;;5094967;28;20457;-91
2023/09/24 11:59:48;;;;;;;3.30;1.47;;;20.20;99.90;;;;;;5051414;28;20458;-84
2023/09/24 12:02:24;;;;;;;3.87;1.87;;;20.20;99.90;;;;;;5095824;28;20445;-92
2023/09/24 12:04:55;;;;;;;2.17;1.97;;;20.20;99.90;;;;;;5080163;28;20504;-85
2023/09/24 12:07:39;;;;;;;2.83;1.60;;;20.30;99.90;;;;;;5085038;28;20465;-85
2023/09/24 12:10:09;;;;;;;2.80;2.20;;;20.30;99.90;;;;;;5072903;28;20467;-93
2023/09/24 12:12:42;;;;;;;2.10;1.90;;;20.30;99.90;;;;;;5097770;28;20465;-92
2023/09/24 12:15:17;;;;;;;8.07;7.27;;;20.40;99.90;;;;;;5095129;28;20485;-86
2023/09/24 12:18:06;;;;;;;6.83;6.23;;;20.40;99.90;;;;;;5095037;28;20476;-91
2023/09/24 12:20:46;;;;;;;4.20;3.20;;;20.40;99.90;;;;;;5091021;28;20569;-91
2023/09/24 12:23:13;;;;;;;3.77;3.23;;;20.40;99.90;;;;;;5089531;28;20945;-92
2023/09/24 12:25:44;;;;;;;2.10;1.90;;;20.40;99.90;;;;;;5094259;28;20476;-85
2023/09/24 12:31:15;;;;;;;2.40;1.97;;;20.30;99.90;;;;;;5070858;28;20470;-91
2023/09/24 12:36:35;;;;;;;2.07;1.83;;;20.30;99.90;;;;;;5052783;28;20473;-85
2023/09/24 12:39:17;;;;;;;2.67;2.43;;;20.20;99.90;;;;;;5072943;28;20482;-85
2023/09/24 12:41:54;;;;;;;3.60;2.50;;;20.20;99.90;;;;;;5085894;28;20801;-90
2023/09/24 12:44:21;;;;;;;2.33;1.83;;;20.20;99.90;;;;;;5095160;28;20804;-91
2023/09/24 12:46:57;;;;;;;1.93;1.60;;;20.20;99.90;;;;;;5083366;28;20480;-91
2023/09/24 12:49:37;;;;;;;2.93;1.40;;;20.20;99.90;;;;;;5059728;28;20508;-83
2023/09/24 12:52:27;;;;;;;2.50;1.90;;;20.10;99.90;;;;;;5079721;28;20474;-90
2023/09/24 12:55:06;;;;;;;3.70;2.60;;;20.20;99.90;;;;;;5289147;22;20518;-91
2023/09/24 12:57:48;;;;;;;2.17;1.53;;;20.20;99.90;;;;;;5050022;28;20498;-91
2023/09/24 13:00:27;;;;;;;3.53;1.90;;;20.10;99.90;;;;;;5049714;28;20479;-91
2023/09/24 13:03:37;;;;;;;1.80;1.70;;;20.20;99.90;;;;;;5057117;28;20489;-91
2023/09/24 13:06:14;;;;;;;2.80;2.10;;;20.20;99.90;;;;;;5072033;28;20535;-84
2023/09/24 13:08:52;;;;;;;2.10;1.60;;;20.20;99.90;;;;;;5048407;28;20469;-91
2023/09/24 13:11:28;;;;;;;3.43;1.73;;;20.20;99.90;;;;;;5072443;28;20540;-83
2023/09/24 13:14:21;;;;;;;2.60;1.60;;;20.30;99.90;;;;;;5053515;28;20476;-92
2023/09/24 13:16:48;;;;;;;5.03;1.70;;;20.30;99.90;;;;;;5064073;28;20969;-84
2023/09/24 13:19:23;;;;;;;2.93;2.07;;;20.30;99.90;;;;;;5073622;28;20478;-84
2023/09/24 13:21:51;;;;;;;2.43;1.50;;;20.30;99.90;;;;;;5025455;28;20462;-85
2023/09/24 13:24:23;;;;;;;2.30;1.57;;;20.30;99.90;;;;;;5055950;28;20470;-85
2023/09/24 13:26:51;;;;;;;2.43;1.40;;;20.30;99.90;;;;;;5072972;28;20466;-86
2023/09/24 13:29:28;;;;;;;2.67;2.17;;;20.40;99.90;;;;;;5077986;28;20469;-92
2023/09/24 13:32:02;;;;;;;2.27;2.00;;;20.30;99.90;;;;;;5047394;28;20474;-92
2023/09/24 13:34:43;;;;;;;3.23;2.80;;;20.40;99.90;;;;;;5058659;28;20484;-86
2023/09/24 13:37:13;;;;;;;2.10;1.90;;;20.40;99.90;;;;;;5047280;28;20535;-85
2023/09/24 13:39:57;;;;;;;3.17;1.90;;;20.40;99.90;;;;;;5047201;28;20873;-84
2023/09/24 13:42:36;;;;;;;2.00;1.70;;;20.40;99.90;;;;;;5062968;28;20462;-85
2023/09/24 13:45:14;;;;;;;1.77;1.63;;;20.30;99.90;;;;;;5278717;22;20488;-85
2023/09/24 13:48:03;;;;;;;;;;;;;;;;;;;;;
2023/09/24 13:50:46;;;;;;;1.33;1.20;;;20.30;99.90;;;;;;5087192;28;20470;-84
2023/09/24 13:53:17;;;;;;;1.90;1.60;;;20.30;99.90;;;;;;5089638;28;20465;-84
2023/09/24 13:55:46;;;;;;;1.77;1.57;;;20.30;99.90;;;;;;5092737;28;20512;-84
2023/09/24 13:58:13;;;;;;;1.77;1.67;;;20.30;99.90;;;;;;5092058;28;20466;-92
2023/09/24 14:00:51;;;;;;;2.63;1.70;;;20.30;99.90;;;;;;5095315;28;20466;-85
2023/09/24 14:03:25;;;;;;;2.83;1.77;;;20.30;99.90;;;;;;5065134;28;20448;-91
2023/09/24 14:06:02;;;;;;;2.07;1.40;;;20.30;99.90;;;;;;5076529;28;20975;-91
2023/09/24 14:14:35;;;;;;;3.13;2.13;;;20.30;99.90;;;;;;5025440;28;20494;-86
2023/09/24 14:17:17;;;;;;;2.13;1.70;;;20.30;99.90;;;;;;5093609;28;20468;-92
2023/09/24 14:20:00;;;;;;;2.03;1.73;;;20.30;99.90;;;;;;5068199;28;20497;-90
2023/09/24 14:22:40;;;;;;;2.10;1.90;;;20.20;99.90;;;;;;5063630;28;20465;-91
2023/09/24 14:25:18;;;;;;;2.10;1.90;;;20.20;99.90;;;;;;5097075;28;20465;-85
2023/09/24 14:27:52;;;;;;;2.37;1.60;;;20.20;99.90;;;;;;5094638;28;20456;-86
2023/09/24 14:30:38;;;;;;;3.50;2.50;;;20.20;99.90;;;;;;5072251;28;20993;-92
2023/09/24 14:33:11;;;;;;;2.30;2.07;;;20.20;99.90;;;;;;5068007;28;20469;-85
2023/09/24 14:35:51;;;;;;;1.83;1.73;;;20.10;99.90;;;;;;5081842;28;20489;-86